sensor_id;sensor_type;location;lat;lon;timestamp;P1;durP1;ratioP1;P2;durP2;ratioP2
32196;SDS011;18697;42.770;23.400;2023-04-24T00:01:26;6.40;;;4.50;;
32196;SDS011;18697;42.770;23.400;2023-04-24T00:06:16;10.75;;;5.05;;
32196;SDS011;18697;42.770;23.400;2023-04-24T00:11:07;11.75;;;5.10;;
32196;SDS011;18697;42.770;23.400;2023-04-24T00:13:34;9.50;;;5.07;;
32196;SDS011;18697;42.770;23.400;2023-04-24T00:15:59;7.60;;;4.57;;
32196;SDS011;18697;42.770;23.400;2023-04-24T00:18:25;8.73;;;4.32;;
32196;SDS011;18697;42.770;23.400;2023-04-24T00:20:50;5.70;;;3.92;;
32196;SDS011;18697;42.770;23.400;2023-04-24T00:23:16;6.82;;;3.95;;
32196;SDS011;18697;42.770;23.400;2023-04-24T00:28:06;6.38;;;3.67;;
32196;SDS011;18697;42.770;23.400;2023-04-24T00:30:32;5.20;;;4.05;;
32196;SDS011;18697;42.770;23.400;2023-04-24T00:35:22;5.80;;;3.30;;
32196;SDS011;18697;42.770;23.400;2023-04-24T00:40:13;7.18;;;3.50;;
32196;SDS011;18697;42.770;23.400;2023-04-24T00:42:39;4.72;;;3.53;;
32196;SDS011;18697;42.770;23.400;2023-04-24T00:45:05;3.40;;;3.10;;
32196;SDS011;18697;42.770;23.400;2023-04-24T00:47:32;3.45;;;3.15;;
32196;SDS011;18697;42.770;23.400;2023-04-24T00:50:00;4.07;;;3.53;;
32196;SDS011;18697;42.770;23.400;2023-04-24T00:52:27;5.25;;;3.35;;
32196;SDS011;18697;42.770;23.400;2023-04-24T00:54:53;8.18;;;4.72;;
32196;SDS011;18697;42.770;23.400;2023-04-24T00:57:18;5.43;;;3.50;;
32196;SDS011;18697;42.770;23.400;2023-04-24T00:59:44;4.05;;;3.15;;
32196;SDS011;18697;42.770;23.400;2023-04-24T01:02:10;7.45;;;4.47;;
32196;SDS011;18697;42.770;23.400;2023-04-24T01:04:37;3.33;;;3.03;;
32196;SDS011;18697;42.770;23.400;2023-04-24T01:07:03;7.30;;;3.60;;
32196;SDS011;18697;42.770;23.400;2023-04-24T01:09:34;5.45;;;3.50;;
32196;SDS011;18697;42.770;23.400;2023-04-24T01:12:01;5.55;;;3.95;;
32196;SDS011;18697;42.770;23.400;2023-04-24T01:14:26;4.30;;;3.20;;
32196;SDS011;18697;42.770;23.400;2023-04-24T01:16:52;4.80;;;3.20;;
32196;SDS011;18697;42.770;23.400;2023-04-24T01:19:17;7.82;;;3.85;;
32196;SDS011;18697;42.770;23.400;2023-04-24T01:21:44;13.65;;;4.53;;
32196;SDS011;18697;42.770;23.400;2023-04-24T01:24:12;3.83;;;3.00;;
32196;SDS011;18697;42.770;23.400;2023-04-24T01:26:38;6.72;;;4.07;;
32196;SDS011;18697;42.770;23.400;2023-04-24T01:29:03;3.90;;;3.53;;
32196;SDS011;18697;42.770;23.400;2023-04-24T01:31:29;3.53;;;3.22;;
32196;SDS011;18697;42.770;23.400;2023-04-24T01:33:55;10.20;;;3.53;;
32196;SDS011;18697;42.770;23.400;2023-04-24T01:36:21;3.88;;;3.53;;
32196;SDS011;18697;42.770;23.400;2023-04-24T01:38:48;5.00;;;3.70;;
32196;SDS011;18697;42.770;23.400;2023-04-24T01:41:14;3.75;;;3.10;;
32196;SDS011;18697;42.770;23.400;2023-04-24T01:43:39;5.38;;;3.30;;
32196;SDS011;18697;42.770;23.400;2023-04-24T01:46:05;6.20;;;3.63;;
32196;SDS011;18697;42.770;23.400;2023-04-24T01:48:31;4.25;;;3.25;;
32196;SDS011;18697;42.770;23.400;2023-04-24T01:50:57;4.72;;;3.50;;
32196;SDS011;18697;42.770;23.400;2023-04-24T01:53:22;6.70;;;3.47;;
32196;SDS011;18697;42.770;23.400;2023-04-24T01:55:47;4.03;;;3.63;;
32196;SDS011;18697;42.770;23.400;2023-04-24T01:58:13;5.13;;;3.55;;
32196;SDS011;18697;42.770;23.400;2023-04-24T02:00:39;5.07;;;3.28;;
32196;SDS011;18697;42.770;23.400;2023-04-24T02:03:04;4.47;;;3.50;;
32196;SDS011;18697;42.770;23.400;2023-04-24T02:05:29;4.25;;;3.30;;
32196;SDS011;18697;42.770;23.400;2023-04-24T02:07:55;4.95;;;3.55;;
32196;SDS011;18697;42.770;23.400;2023-04-24T02:10:20;4.03;;;3.60;;
32196;SDS011;18697;42.770;23.400;2023-04-24T02:12:46;5.40;;;3.88;;
32196;SDS011;18697;42.770;23.400;2023-04-24T02:15:11;7.35;;;3.80;;
32196;SDS011;18697;42.770;23.400;2023-04-24T02:17:37;8.75;;;4.43;;
32196;SDS011;18697;42.770;23.400;2023-04-24T02:20:03;5.78;;;3.75;;
32196;SDS011;18697;42.770;23.400;2023-04-24T02:22:30;4.63;;;4.15;;
32196;SDS011;18697;42.770;23.400;2023-04-24T02:24:55;4.97;;;4.18;;
32196;SDS011;18697;42.770;23.400;2023-04-24T02:27:21;6.60;;;3.90;;
32196;SDS011;18697;42.770;23.400;2023-04-24T02:29:46;6.03;;;3.83;;
32196;SDS011;18697;42.770;23.400;2023-04-24T02:32:11;4.88;;;4.28;;
32196;SDS011;18697;42.770;23.400;2023-04-24T02:34:37;7.25;;;4.40;;
32196;SDS011;18697;42.770;23.400;2023-04-24T02:37:03;6.15;;;4.88;;
32196;SDS011;18697;42.770;23.400;2023-04-24T02:39:28;11.20;;;7.65;;
32196;SDS011;18697;42.770;23.400;2023-04-24T02:41:54;10.68;;;7.60;;
32196;SDS011;18697;42.770;23.400;2023-04-24T02:44:19;13.40;;;8.20;;
32196;SDS011;18697;42.770;23.400;2023-04-24T02:46:44;11.57;;;8.55;;
32196;SDS011;18697;42.770;23.400;2023-04-24T02:49:10;7.97;;;6.68;;
32196;SDS011;18697;42.770;23.400;2023-04-24T02:51:37;11.02;;;8.63;;
32196;SDS011;18697;42.770;23.400;2023-04-24T02:54:05;15.98;;;8.82;;
32196;SDS011;18697;42.770;23.400;2023-04-24T02:56:31;16.25;;;10.05;;
32196;SDS011;18697;42.770;23.400;2023-04-24T02:58:56;16.48;;;10.32;;
32196;SDS011;18697;42.770;23.400;2023-04-24T03:01:21;17.30;;;11.15;;
32196;SDS011;18697;42.770;23.400;2023-04-24T03:03:47;16.77;;;11.38;;
32196;SDS011;18697;42.770;23.400;2023-04-24T03:06:12;16.85;;;10.27;;
32196;SDS011;18697;42.770;23.400;2023-04-24T03:08:37;21.15;;;12.63;;
32196;SDS011;18697;42.770;23.400;2023-04-24T03:11:03;18.73;;;11.55;;
32196;SDS011;18697;42.770;23.400;2023-04-24T03:13:28;19.90;;;11.95;;
32196;SDS011;18697;42.770;23.400;2023-04-24T03:15:53;14.65;;;9.98;;
32196;SDS011;18697;42.770;23.400;2023-04-24T03:18:19;16.83;;;10.82;;
32196;SDS011;18697;42.770;23.400;2023-04-24T03:20:47;16.10;;;11.25;;
32196;SDS011;18697;42.770;23.400;2023-04-24T03:23:13;18.98;;;12.68;;
32196;SDS011;18697;42.770;23.400;2023-04-24T03:25:39;17.92;;;12.23;;
32196;SDS011;18697;42.770;23.400;2023-04-24T03:28:04;16.52;;;11.43;;
32196;SDS011;18697;42.770;23.400;2023-04-24T03:30:31;15.93;;;11.82;;
32196;SDS011;18697;42.770;23.400;2023-04-24T03:32:56;16.45;;;11.70;;
32196;SDS011;18697;42.770;23.400;2023-04-24T03:35:22;17.63;;;12.20;;
32196;SDS011;18697;42.770;23.400;2023-04-24T03:37:47;16.98;;;12.10;;
32196;SDS011;18697;42.770;23.400;2023-04-24T03:40:12;18.30;;;11.93;;
32196;SDS011;18697;42.770;23.400;2023-04-24T03:42:38;15.30;;;11.23;;
32196;SDS011;18697;42.770;23.400;2023-04-24T03:45:04;17.02;;;11.55;;
32196;SDS011;18697;42.770;23.400;2023-04-24T03:47:30;17.23;;;12.70;;
32196;SDS011;18697;42.770;23.400;2023-04-24T03:49:55;20.20;;;12.18;;
32196;SDS011;18697;42.770;23.400;2023-04-24T03:52:21;19.92;;;13.38;;
32196;SDS011;18697;42.770;23.400;2023-04-24T03:54:46;20.23;;;14.57;;
32196;SDS011;18697;42.770;23.400;2023-04-24T03:57:11;25.63;;;16.65;;
32196;SDS011;18697;42.770;23.400;2023-04-24T03:59:37;20.60;;;15.73;;
32196;SDS011;18697;42.770;23.400;2023-04-24T04:02:02;22.08;;;14.43;;
32196;SDS011;18697;42.770;23.400;2023-04-24T04:04:27;29.05;;;19.48;;
32196;SDS011;18697;42.770;23.400;2023-04-24T04:06:53;29.63;;;19.25;;
32196;SDS011;18697;42.770;23.400;2023-04-24T04:09:18;27.95;;;19.17;;
32196;SDS011;18697;42.770;23.400;2023-04-24T04:11:44;30.48;;;19.67;;
32196;SDS011;18697;42.770;23.400;2023-04-24T04:14:09;28.73;;;20.08;;
32196;SDS011;18697;42.770;23.400;2023-04-24T04:16:34;26.52;;;19.88;;
32196;SDS011;18697;42.770;23.400;2023-04-24T04:19:01;33.22;;;24.10;;
32196;SDS011;18697;42.770;23.400;2023-04-24T04:21:27;34.60;;;23.33;;
32196;SDS011;18697;42.770;23.400;2023-04-24T04:23:53;37.67;;;24.75;;
32196;SDS011;18697;42.770;23.400;2023-04-24T04:26:19;36.65;;;22.48;;
32196;SDS011;18697;42.770;23.400;2023-04-24T04:28:46;29.95;;;20.75;;
32196;SDS011;18697;42.770;23.400;2023-04-24T04:31:12;25.73;;;17.75;;
32196;SDS011;18697;42.770;23.400;2023-04-24T04:33:38;26.60;;;19.08;;
32196;SDS011;18697;42.770;23.400;2023-04-24T04:36:04;17.73;;;14.30;;
32196;SDS011;18697;42.770;23.400;2023-04-24T04:38:30;35.50;;;21.48;;
32196;SDS011;18697;42.770;23.400;2023-04-24T04:40:55;37.13;;;20.27;;
32196;SDS011;18697;42.770;23.400;2023-04-24T04:43:22;31.48;;;21.40;;
32196;SDS011;18697;42.770;23.400;2023-04-24T04:45:49;28.10;;;16.42;;
32196;SDS011;18697;42.770;23.400;2023-04-24T04:48:16;37.03;;;24.42;;
32196;SDS011;18697;42.770;23.400;2023-04-24T04:50:42;31.65;;;20.55;;
32196;SDS011;18697;42.770;23.400;2023-04-24T04:53:08;32.03;;;17.58;;
32196;SDS011;18697;42.770;23.400;2023-04-24T04:55:33;33.20;;;19.70;;
32196;SDS011;18697;42.770;23.400;2023-04-24T04:57:59;34.10;;;21.33;;
32196;SDS011;18697;42.770;23.400;2023-04-24T05:00:25;35.38;;;21.63;;
32196;SDS011;18697;42.770;23.400;2023-04-24T05:02:51;33.95;;;23.92;;
32196;SDS011;18697;42.770;23.400;2023-04-24T05:05:16;43.78;;;27.10;;
32196;SDS011;18697;42.770;23.400;2023-04-24T05:07:42;37.80;;;23.55;;
32196;SDS011;18697;42.770;23.400;2023-04-24T05:10:08;52.25;;;33.00;;
32196;SDS011;18697;42.770;23.400;2023-04-24T05:12:34;42.88;;;28.98;;
32196;SDS011;18697;42.770;23.400;2023-04-24T05:14:59;49.85;;;31.67;;
32196;SDS011;18697;42.770;23.400;2023-04-24T05:17:25;50.08;;;32.33;;
32196;SDS011;18697;42.770;23.400;2023-04-24T05:19:50;45.28;;;29.88;;
32196;SDS011;18697;42.770;23.400;2023-04-24T05:22:16;43.72;;;27.00;;
32196;SDS011;18697;42.770;23.400;2023-04-24T05:24:43;41.00;;;28.10;;
32196;SDS011;18697;42.770;23.400;2023-04-24T05:27:08;25.40;;;14.25;;
32196;SDS011;18697;42.770;23.400;2023-04-24T05:29:34;43.83;;;28.10;;
32196;SDS011;18697;42.770;23.400;2023-04-24T05:32:00;42.40;;;29.13;;
32196;SDS011;18697;42.770;23.400;2023-04-24T05:34:25;41.08;;;29.27;;
32196;SDS011;18697;42.770;23.400;2023-04-24T05:36:52;50.72;;;31.63;;
32196;SDS011;18697;42.770;23.400;2023-04-24T05:39:18;38.40;;;25.00;;
32196;SDS011;18697;42.770;23.400;2023-04-24T05:41:44;51.92;;;30.70;;
32196;SDS011;18697;42.770;23.400;2023-04-24T05:44:10;50.10;;;32.28;;
32196;SDS011;18697;42.770;23.400;2023-04-24T05:46:35;46.78;;;33.58;;
32196;SDS011;18697;42.770;23.400;2023-04-24T05:49:01;47.97;;;32.90;;
32196;SDS011;18697;42.770;23.400;2023-04-24T05:51:27;46.58;;;32.28;;
32196;SDS011;18697;42.770;23.400;2023-04-24T05:53:53;41.53;;;29.27;;
32196;SDS011;18697;42.770;23.400;2023-04-24T05:56:18;37.28;;;24.67;;
32196;SDS011;18697;42.770;23.400;2023-04-24T05:58:45;33.55;;;19.58;;
32196;SDS011;18697;42.770;23.400;2023-04-24T06:01:11;39.80;;;26.60;;
32196;SDS011;18697;42.770;23.400;2023-04-24T06:03:37;37.45;;;26.27;;
32196;SDS011;18697;42.770;23.400;2023-04-24T06:06:06;40.15;;;27.67;;
32196;SDS011;18697;42.770;23.400;2023-04-24T06:08:32;44.17;;;29.75;;
32196;SDS011;18697;42.770;23.400;2023-04-24T06:10:58;35.90;;;26.38;;
32196;SDS011;18697;42.770;23.400;2023-04-24T06:13:24;25.02;;;16.60;;
32196;SDS011;18697;42.770;23.400;2023-04-24T06:15:49;12.52;;;6.20;;
32196;SDS011;18697;42.770;23.400;2023-04-24T06:18:15;34.42;;;24.27;;
32196;SDS011;18697;42.770;23.400;2023-04-24T06:20:40;17.10;;;10.20;;
32196;SDS011;18697;42.770;23.400;2023-04-24T06:23:06;21.13;;;10.95;;
32196;SDS011;18697;42.770;23.400;2023-04-24T06:25:31;21.92;;;11.65;;
32196;SDS011;18697;42.770;23.400;2023-04-24T06:27:57;10.32;;;6.15;;
32196;SDS011;18697;42.770;23.400;2023-04-24T06:30:23;17.00;;;8.90;;
32196;SDS011;18697;42.770;23.400;2023-04-24T06:32:48;9.45;;;6.07;;
32196;SDS011;18697;42.770;23.400;2023-04-24T06:35:13;7.20;;;5.13;;
32196;SDS011;18697;42.770;23.400;2023-04-24T06:37:42;18.60;;;13.15;;
32196;SDS011;18697;42.770;23.400;2023-04-24T06:40:08;24.20;;;16.05;;
32196;SDS011;18697;42.770;23.400;2023-04-24T06:42:35;23.30;;;14.75;;
32196;SDS011;18697;42.770;23.400;2023-04-24T06:45:01;16.65;;;11.27;;
32196;SDS011;18697;42.770;23.400;2023-04-24T06:47:27;14.18;;;5.90;;
32196;SDS011;18697;42.770;23.400;2023-04-24T06:52:18;10.82;;;7.18;;
32196;SDS011;18697;42.770;23.400;2023-04-24T06:54:44;11.35;;;5.50;;
32196;SDS011;18697;42.770;23.400;2023-04-24T06:57:09;9.45;;;6.68;;
32196;SDS011;18697;42.770;23.400;2023-04-24T06:59:35;9.57;;;5.05;;
32196;SDS011;18697;42.770;23.400;2023-04-24T07:02:01;12.45;;;5.70;;
32196;SDS011;18697;42.770;23.400;2023-04-24T07:06:52;7.45;;;5.47;;
32196;SDS011;18697;42.770;23.400;2023-04-24T07:09:20;16.90;;;6.32;;
32196;SDS011;18697;42.770;23.400;2023-04-24T07:11:47;15.95;;;7.40;;
32196;SDS011;18697;42.770;23.400;2023-04-24T07:14:12;14.88;;;9.25;;
32196;SDS011;18697;42.770;23.400;2023-04-24T07:19:03;17.17;;;7.35;;
32196;SDS011;18697;42.770;23.400;2023-04-24T07:21:29;13.93;;;7.13;;
32196;SDS011;18697;42.770;23.400;2023-04-24T07:23:56;10.45;;;7.75;;
32196;SDS011;18697;42.770;23.400;2023-04-24T07:26:22;15.43;;;8.73;;
32196;SDS011;18697;42.770;23.400;2023-04-24T07:28:48;13.10;;;7.93;;
32196;SDS011;18697;42.770;23.400;2023-04-24T07:31:13;14.02;;;8.48;;
32196;SDS011;18697;42.770;23.400;2023-04-24T07:36:04;13.07;;;7.28;;
32196;SDS011;18697;42.770;23.400;2023-04-24T07:38:30;14.90;;;6.80;;
32196;SDS011;18697;42.770;23.400;2023-04-24T07:40:56;12.27;;;6.68;;
32196;SDS011;18697;42.770;23.400;2023-04-24T07:43:21;14.95;;;6.47;;
32196;SDS011;18697;42.770;23.400;2023-04-24T07:45:48;11.68;;;7.07;;
32196;SDS011;18697;42.770;23.400;2023-04-24T07:48:14;11.48;;;5.97;;
32196;SDS011;18697;42.770;23.400;2023-04-24T07:50:41;11.85;;;5.97;;
32196;SDS011;18697;42.770;23.400;2023-04-24T07:53:07;13.60;;;5.97;;
32196;SDS011;18697;42.770;23.400;2023-04-24T07:55:32;10.27;;;4.68;;
32196;SDS011;18697;42.770;23.400;2023-04-24T07:57:58;15.52;;;5.65;;
32196;SDS011;18697;42.770;23.400;2023-04-24T08:00:23;12.23;;;6.05;;
32196;SDS011;18697;42.770;23.400;2023-04-24T08:02:48;6.95;;;4.47;;
32196;SDS011;18697;42.770;23.400;2023-04-24T08:05:14;6.97;;;5.70;;
32196;SDS011;18697;42.770;23.400;2023-04-24T08:07:39;11.95;;;6.93;;
32196;SDS011;18697;42.770;23.400;2023-04-24T08:10:07;8.88;;;4.80;;
32196;SDS011;18697;42.770;23.400;2023-04-24T08:12:34;7.72;;;5.70;;
32196;SDS011;18697;42.770;23.400;2023-04-24T08:14:59;8.32;;;5.15;;
32196;SDS011;18697;42.770;23.400;2023-04-24T08:17:25;8.23;;;5.50;;
32196;SDS011;18697;42.770;23.400;2023-04-24T08:19:50;6.82;;;4.55;;
32196;SDS011;18697;42.770;23.400;2023-04-24T08:22:17;5.63;;;5.07;;
32196;SDS011;18697;42.770;23.400;2023-04-24T08:24:42;6.78;;;4.10;;
32196;SDS011;18697;42.770;23.400;2023-04-24T08:27:09;6.40;;;4.22;;
32196;SDS011;18697;42.770;23.400;2023-04-24T08:29:35;14.45;;;4.97;;
32196;SDS011;18697;42.770;23.400;2023-04-24T08:32:01;7.88;;;5.00;;
32196;SDS011;18697;42.770;23.400;2023-04-24T08:34:26;4.97;;;4.38;;
32196;SDS011;18697;42.770;23.400;2023-04-24T08:36:51;8.13;;;5.00;;
32196;SDS011;18697;42.770;23.400;2023-04-24T08:39:17;9.93;;;5.10;;
32196;SDS011;18697;42.770;23.400;2023-04-24T08:41:43;8.02;;;4.38;;
32196;SDS011;18697;42.770;23.400;2023-04-24T08:44:10;8.90;;;4.20;;
32196;SDS011;18697;42.770;23.400;2023-04-24T08:46:37;7.28;;;5.18;;
32196;SDS011;18697;42.770;23.400;2023-04-24T08:49:02;7.47;;;4.43;;
32196;SDS011;18697;42.770;23.400;2023-04-24T08:51:29;5.15;;;4.20;;
32196;SDS011;18697;42.770;23.400;2023-04-24T08:53:55;10.07;;;5.03;;
32196;SDS011;18697;42.770;23.400;2023-04-24T08:56:22;5.55;;;4.40;;
32196;SDS011;18697;42.770;23.400;2023-04-24T08:58:50;8.85;;;4.40;;
32196;SDS011;18697;42.770;23.400;2023-04-24T09:01:16;8.38;;;4.03;;
32196;SDS011;18697;42.770;23.400;2023-04-24T09:03:44;7.03;;;4.53;;
32196;SDS011;18697;42.770;23.400;2023-04-24T09:06:11;5.00;;;4.50;;
32196;SDS011;18697;42.770;23.400;2023-04-24T09:08:37;9.95;;;4.20;;
32196;SDS011;18697;42.770;23.400;2023-04-24T09:11:05;8.63;;;4.10;;
32196;SDS011;18697;42.770;23.400;2023-04-24T09:13:31;5.53;;;4.55;;
32196;SDS011;18697;42.770;23.400;2023-04-24T09:15:57;6.38;;;5.13;;
32196;SDS011;18697;42.770;23.400;2023-04-24T09:18:23;6.50;;;5.05;;
32196;SDS011;18697;42.770;23.400;2023-04-24T09:21:06;9.20;;;5.82;;
32196;SDS011;18697;42.770;23.400;2023-04-24T09:23:33;9.48;;;7.00;;
32196;SDS011;18697;42.770;23.400;2023-04-24T09:26:00;22.10;;;5.90;;
32196;SDS011;18697;42.770;23.400;2023-04-24T09:28:30;6.65;;;5.32;;
32196;SDS011;18697;42.770;23.400;2023-04-24T09:31:08;14.70;;;6.35;;
32196;SDS011;18697;42.770;23.400;2023-04-24T09:33:39;6.75;;;4.47;;
32196;SDS011;18697;42.770;23.400;2023-04-24T09:36:05;8.48;;;5.10;;
32196;SDS011;18697;42.770;23.400;2023-04-24T09:38:37;10.88;;;5.60;;
32196;SDS011;18697;42.770;23.400;2023-04-24T09:41:06;8.73;;;5.25;;
32196;SDS011;18697;42.770;23.400;2023-04-24T09:43:33;9.38;;;4.70;;
32196;SDS011;18697;42.770;23.400;2023-04-24T09:46:04;6.88;;;4.18;;
32196;SDS011;18697;42.770;23.400;2023-04-24T09:48:31;5.80;;;3.78;;
32196;SDS011;18697;42.770;23.400;2023-04-24T09:50:58;9.43;;;5.20;;
32196;SDS011;18697;42.770;23.400;2023-04-24T09:53:27;5.93;;;4.35;;
32196;SDS011;18697;42.770;23.400;2023-04-24T09:55:53;7.40;;;4.30;;
32196;SDS011;18697;42.770;23.400;2023-04-24T09:58:21;7.20;;;4.68;;
32196;SDS011;18697;42.770;23.400;2023-04-24T10:00:50;9.43;;;6.88;;
32196;SDS011;18697;42.770;23.400;2023-04-24T10:03:18;5.82;;;4.28;;
32196;SDS011;18697;42.770;23.400;2023-04-24T10:05:45;5.20;;;4.30;;
32196;SDS011;18697;42.770;23.400;2023-04-24T10:08:12;12.50;;;5.72;;
32196;SDS011;18697;42.770;23.400;2023-04-24T10:10:39;7.53;;;5.35;;
32196;SDS011;18697;42.770;23.400;2023-04-24T10:13:09;6.15;;;3.75;;
32196;SDS011;18697;42.770;23.400;2023-04-24T10:15:36;10.02;;;5.25;;
32196;SDS011;18697;42.770;23.400;2023-04-24T10:18:02;5.22;;;4.20;;
32196;SDS011;18697;42.770;23.400;2023-04-24T10:20:31;5.95;;;3.97;;
32196;SDS011;18697;42.770;23.400;2023-04-24T10:22:57;5.47;;;3.75;;
32196;SDS011;18697;42.770;23.400;2023-04-24T10:25:25;8.57;;;4.35;;
32196;SDS011;18697;42.770;23.400;2023-04-24T10:27:53;4.63;;;4.22;;
32196;SDS011;18697;42.770;23.400;2023-04-24T10:30:22;9.95;;;5.70;;
32196;SDS011;18697;42.770;23.400;2023-04-24T10:32:48;4.38;;;3.78;;
32196;SDS011;18697;42.770;23.400;2023-04-24T10:35:15;10.88;;;4.20;;
32196;SDS011;18697;42.770;23.400;2023-04-24T10:37:49;4.00;;;3.53;;
32196;SDS011;18697;42.770;23.400;2023-04-24T10:40:27;9.05;;;3.97;;
32196;SDS011;18697;42.770;23.400;2023-04-24T10:42:56;9.50;;;3.63;;
32196;SDS011;18697;42.770;23.400;2023-04-24T10:45:22;9.15;;;3.80;;
32196;SDS011;18697;42.770;23.400;2023-04-24T10:47:52;4.93;;;3.63;;
32196;SDS011;18697;42.770;23.400;2023-04-24T10:50:18;6.55;;;4.00;;
32196;SDS011;18697;42.770;23.400;2023-04-24T10:52:47;7.65;;;4.30;;
32196;SDS011;18697;42.770;23.400;2023-04-24T10:55:16;4.68;;;3.90;;
32196;SDS011;18697;42.770;23.400;2023-04-24T10:58:05;10.63;;;4.25;;
32196;SDS011;18697;42.770;23.400;2023-04-24T11:00:30;5.70;;;3.67;;
32196;SDS011;18697;42.770;23.400;2023-04-24T11:02:56;7.35;;;3.85;;
32196;SDS011;18697;42.770;23.400;2023-04-24T11:05:22;6.18;;;4.03;;
32196;SDS011;18697;42.770;23.400;2023-04-24T11:10:44;10.98;;;4.03;;
32196;SDS011;18697;42.770;23.400;2023-04-24T11:13:13;4.13;;;3.80;;
32196;SDS011;18697;42.770;23.400;2023-04-24T11:15:41;7.82;;;3.45;;
32196;SDS011;18697;42.770;23.400;2023-04-24T11:18:11;3.55;;;3.13;;
32196;SDS011;18697;42.770;23.400;2023-04-24T11:20:41;7.72;;;3.58;;
32196;SDS011;18697;42.770;23.400;2023-04-24T11:23:08;4.65;;;4.22;;
32196;SDS011;18697;42.770;23.400;2023-04-24T11:25:33;6.63;;;4.53;;
32196;SDS011;18697;42.770;23.400;2023-04-24T11:28:04;10.32;;;3.80;;
32196;SDS011;18697;42.770;23.400;2023-04-24T11:30:31;4.32;;;3.92;;
32196;SDS011;18697;42.770;23.400;2023-04-24T11:33:04;8.20;;;3.88;;
32196;SDS011;18697;42.770;23.400;2023-04-24T11:35:30;9.23;;;3.97;;
32196;SDS011;18697;42.770;23.400;2023-04-24T11:38:02;3.47;;;3.17;;
32196;SDS011;18697;42.770;23.400;2023-04-24T11:40:28;9.75;;;4.18;;
32196;SDS011;18697;42.770;23.400;2023-04-24T11:42:54;6.75;;;4.05;;
32196;SDS011;18697;42.770;23.400;2023-04-24T11:45:23;6.97;;;4.10;;
32196;SDS011;18697;42.770;23.400;2023-04-24T11:47:50;7.53;;;3.67;;
32196;SDS011;18697;42.770;23.400;2023-04-24T11:50:17;5.47;;;4.60;;
32196;SDS011;18697;42.770;23.400;2023-04-24T11:52:45;5.72;;;4.22;;
32196;SDS011;18697;42.770;23.400;2023-04-24T11:57:42;5.40;;;3.38;;
32196;SDS011;18697;42.770;23.400;2023-04-24T12:00:14;3.80;;;2.85;;
32196;SDS011;18697;42.770;23.400;2023-04-24T12:02:41;3.10;;;2.90;;
32196;SDS011;18697;42.770;23.400;2023-04-24T12:05:07;10.55;;;3.50;;
32196;SDS011;18697;42.770;23.400;2023-04-24T12:07:36;3.00;;;2.70;;
32196;SDS011;18697;42.770;23.400;2023-04-24T12:10:07;5.68;;;3.17;;
32196;SDS011;18697;42.770;23.400;2023-04-24T12:12:34;4.25;;;3.13;;
32196;SDS011;18697;42.770;23.400;2023-04-24T12:15:00;4.18;;;3.47;;
32196;SDS011;18697;42.770;23.400;2023-04-24T12:17:29;7.10;;;3.67;;
32196;SDS011;18697;42.770;23.400;2023-04-24T12:19:59;3.80;;;3.00;;
32196;SDS011;18697;42.770;23.400;2023-04-24T12:22:27;3.60;;;3.10;;
32196;SDS011;18697;42.770;23.400;2023-04-24T12:25:00;6.95;;;3.70;;
32196;SDS011;18697;42.770;23.400;2023-04-24T12:27:30;3.97;;;3.20;;
32196;SDS011;18697;42.770;23.400;2023-04-24T12:29:58;7.18;;;3.35;;
32196;SDS011;18697;42.770;23.400;2023-04-24T12:32:24;4.65;;;3.83;;
32196;SDS011;18697;42.770;23.400;2023-04-24T12:34:50;5.82;;;3.17;;
32196;SDS011;18697;42.770;23.400;2023-04-24T12:37:17;3.95;;;3.28;;
32196;SDS011;18697;42.770;23.400;2023-04-24T12:39:58;5.18;;;3.00;;
32196;SDS011;18697;42.770;23.400;2023-04-24T12:42:25;4.30;;;3.30;;
32196;SDS011;18697;42.770;23.400;2023-04-24T12:44:55;3.83;;;3.45;;
32196;SDS011;18697;42.770;23.400;2023-04-24T12:47:23;7.03;;;3.30;;
32196;SDS011;18697;42.770;23.400;2023-04-24T12:49:49;4.10;;;3.20;;
32196;SDS011;18697;42.770;23.400;2023-04-24T12:52:17;5.50;;;3.90;;
32196;SDS011;18697;42.770;23.400;2023-04-24T12:54:46;6.25;;;3.28;;
32196;SDS011;18697;42.770;23.400;2023-04-24T12:57:12;4.68;;;3.00;;
32196;SDS011;18697;42.770;23.400;2023-04-24T12:59:37;2.92;;;2.63;;
32196;SDS011;18697;42.770;23.400;2023-04-24T13:02:04;4.43;;;3.10;;
32196;SDS011;18697;42.770;23.400;2023-04-24T13:04:29;3.72;;;2.97;;
32196;SDS011;18697;42.770;23.400;2023-04-24T13:06:55;4.07;;;2.92;;
32196;SDS011;18697;42.770;23.400;2023-04-24T13:09:20;3.38;;;3.08;;
32196;SDS011;18697;42.770;23.400;2023-04-24T13:11:46;4.78;;;2.55;;
32196;SDS011;18697;42.770;23.400;2023-04-24T13:14:11;2.83;;;2.63;;
32196;SDS011;18697;42.770;23.400;2023-04-24T13:16:37;6.25;;;2.88;;
32196;SDS011;18697;42.770;23.400;2023-04-24T13:19:02;4.78;;;3.00;;
32196;SDS011;18697;42.770;23.400;2023-04-24T13:21:28;3.72;;;3.15;;
32196;SDS011;18697;42.770;23.400;2023-04-24T13:23:55;4.93;;;3.47;;
32196;SDS011;18697;42.770;23.400;2023-04-24T13:26:21;3.80;;;3.50;;
32196;SDS011;18697;42.770;23.400;2023-04-24T13:28:46;7.85;;;3.67;;
32196;SDS011;18697;42.770;23.400;2023-04-24T13:31:11;12.18;;;3.08;;
32196;SDS011;18697;42.770;23.400;2023-04-24T13:33:38;8.30;;;2.80;;
32196;SDS011;18697;42.770;23.400;2023-04-24T13:36:04;2.95;;;2.67;;
32196;SDS011;18697;42.770;23.400;2023-04-24T13:38:29;3.90;;;2.70;;
32196;SDS011;18697;42.770;23.400;2023-04-24T13:40:54;5.88;;;3.03;;
32196;SDS011;18697;42.770;23.400;2023-04-24T13:43:20;3.45;;;3.15;;
32196;SDS011;18697;42.770;23.400;2023-04-24T13:45:45;4.10;;;3.60;;
32196;SDS011;18697;42.770;23.400;2023-04-24T13:48:11;9.23;;;4.68;;
32196;SDS011;18697;42.770;23.400;2023-04-24T13:50:36;7.43;;;4.05;;
32196;SDS011;18697;42.770;23.400;2023-04-24T13:53:02;6.75;;;3.60;;
32196;SDS011;18697;42.770;23.400;2023-04-24T13:55:27;4.47;;;3.30;;
32196;SDS011;18697;42.770;23.400;2023-04-24T13:57:52;6.75;;;3.75;;
32196;SDS011;18697;42.770;23.400;2023-04-24T14:00:20;6.13;;;3.70;;
32196;SDS011;18697;42.770;23.400;2023-04-24T14:02:46;4.03;;;3.00;;
32196;SDS011;18697;42.770;23.400;2023-04-24T14:05:12;4.13;;;2.92;;
32196;SDS011;18697;42.770;23.400;2023-04-24T14:07:39;3.25;;;2.95;;
32196;SDS011;18697;42.770;23.400;2023-04-24T14:10:04;3.60;;;3.30;;
32196;SDS011;18697;42.770;23.400;2023-04-24T14:12:30;8.52;;;3.50;;
32196;SDS011;18697;42.770;23.400;2023-04-24T14:14:56;4.60;;;2.95;;
32196;SDS011;18697;42.770;23.400;2023-04-24T14:17:21;5.32;;;2.90;;
32196;SDS011;18697;42.770;23.400;2023-04-24T14:19:46;5.43;;;2.80;;
32196;SDS011;18697;42.770;23.400;2023-04-24T14:22:12;6.72;;;2.90;;
32196;SDS011;18697;42.770;23.400;2023-04-24T14:24:37;2.80;;;2.60;;
32196;SDS011;18697;42.770;23.400;2023-04-24T14:27:02;2.97;;;2.70;;
32196;SDS011;18697;42.770;23.400;2023-04-24T14:29:28;5.07;;;3.15;;
32196;SDS011;18697;42.770;23.400;2023-04-24T14:31:53;6.78;;;4.03;;
32196;SDS011;18697;42.770;23.400;2023-04-24T14:34:19;4.05;;;3.00;;
32196;SDS011;18697;42.770;23.400;2023-04-24T14:36:44;6.63;;;3.28;;
32196;SDS011;18697;42.770;23.400;2023-04-24T14:39:10;5.03;;;2.95;;
32196;SDS011;18697;42.770;23.400;2023-04-24T14:41:35;3.97;;;2.78;;
32196;SDS011;18697;42.770;23.400;2023-04-24T14:44:02;4.57;;;2.58;;
32196;SDS011;18697;42.770;23.400;2023-04-24T14:46:29;3.10;;;2.78;;
32196;SDS011;18697;42.770;23.400;2023-04-24T14:48:57;3.95;;;3.00;;